sensor_id;sensor_type;location;lat;lon;timestamp;P1;durP1;ratioP1;P2;durP2;ratioP2
1811;SDS011;904;47.814;11.134;2022-12-07T00:01:43;12.02;;;9.02;;
1811;SDS011;904;47.814;11.134;2022-12-07T00:04:11;12.45;;;8.45;;
1811;SDS011;904;47.814;11.134;2022-12-07T00:06:40;11.35;;;9.25;;
1811;SDS011;904;47.814;11.134;2022-12-07T00:09:10;13.65;;;8.95;;
1811;SDS011;904;47.814;11.134;2022-12-07T00:11:38;12.10;;;9.32;;
1811;SDS011;904;47.814;11.134;2022-12-07T00:14:06;12.02;;;9.85;;
1811;SDS011;904;47.814;11.134;2022-12-07T00:16:36;11.68;;;9.50;;
1811;SDS011;904;47.814;11.134;2022-12-07T00:19:10;13.18;;;9.52;;
1811;SDS011;904;47.814;11.134;2022-12-07T00:21:39;13.10;;;8.93;;
1811;SDS011;904;47.814;11.134;2022-12-07T00:24:06;11.88;;;8.32;;
1811;SDS011;904;47.814;11.134;2022-12-07T00:26:37;9.30;;;7.45;;
1811;SDS011;904;47.814;11.134;2022-12-07T00:29:09;11.57;;;7.63;;
1811;SDS011;904;47.814;11.134;2022-12-07T00:31:51;12.88;;;9.63;;
1811;SDS011;904;47.814;11.134;2022-12-07T00:34:18;11.18;;;8.65;;
1811;SDS011;904;47.814;11.134;2022-12-07T00:36:47;13.13;;;8.77;;
1811;SDS011;904;47.814;11.134;2022-12-07T00:39:14;10.30;;;7.47;;
1811;SDS011;904;47.814;11.134;2022-12-07T00:41:46;11.88;;;8.52;;
1811;SDS011;904;47.814;11.134;2022-12-07T00:44:15;12.68;;;9.40;;
1811;SDS011;904;47.814;11.134;2022-12-07T00:46:42;13.38;;;8.57;;
1811;SDS011;904;47.814;11.134;2022-12-07T00:49:14;11.65;;;9.55;;
1811;SDS011;904;47.814;11.134;2022-12-07T00:51:42;11.05;;;8.05;;
1811;SDS011;904;47.814;11.134;2022-12-07T00:54:09;11.57;;;8.68;;
1811;SDS011;904;47.814;11.134;2022-12-07T00:56:40;11.73;;;8.18;;
1811;SDS011;904;47.814;11.134;2022-12-07T00:59:10;11.23;;;8.25;;
1811;SDS011;904;47.814;11.134;2022-12-07T01:01:39;11.52;;;8.63;;
1811;SDS011;904;47.814;11.134;2022-12-07T01:04:10;9.57;;;7.43;;
1811;SDS011;904;47.814;11.134;2022-12-07T01:06:45;11.40;;;8.35;;
1811;SDS011;904;47.814;11.134;2022-12-07T01:09:14;10.68;;;8.10;;
1811;SDS011;904;47.814;11.134;2022-12-07T01:11:42;12.35;;;9.02;;
1811;SDS011;904;47.814;11.134;2022-12-07T01:14:09;9.57;;;7.55;;
1811;SDS011;904;47.814;11.134;2022-12-07T01:16:38;11.27;;;7.93;;
1811;SDS011;904;47.814;11.134;2022-12-07T01:19:07;12.95;;;8.80;;
1811;SDS011;904;47.814;11.134;2022-12-07T01:24:22;12.90;;;9.45;;
1811;SDS011;904;47.814;11.134;2022-12-07T01:26:49;11.45;;;8.75;;
1811;SDS011;904;47.814;11.134;2022-12-07T01:29:26;10.63;;;7.78;;
1811;SDS011;904;47.814;11.134;2022-12-07T01:31:58;11.48;;;8.80;;
1811;SDS011;904;47.814;11.134;2022-12-07T01:34:30;15.10;;;8.70;;
1811;SDS011;904;47.814;11.134;2022-12-07T01:36:59;10.43;;;7.88;;
1811;SDS011;904;47.814;11.134;2022-12-07T01:39:28;12.23;;;9.40;;
1811;SDS011;904;47.814;11.134;2022-12-07T01:41:55;10.07;;;8.35;;
1811;SDS011;904;47.814;11.134;2022-12-07T01:44:23;12.25;;;9.68;;
1811;SDS011;904;47.814;11.134;2022-12-07T01:46:51;13.55;;;8.95;;
1811;SDS011;904;47.814;11.134;2022-12-07T01:49:28;12.45;;;9.55;;
1811;SDS011;904;47.814;11.134;2022-12-07T01:52:00;12.45;;;8.77;;
1811;SDS011;904;47.814;11.134;2022-12-07T01:54:35;9.20;;;7.63;;
1811;SDS011;904;47.814;11.134;2022-12-07T01:57:03;10.98;;;7.57;;
1811;SDS011;904;47.814;11.134;2022-12-07T01:59:37;13.45;;;10.40;;
1811;SDS011;904;47.814;11.134;2022-12-07T02:02:07;13.30;;;9.55;;
1811;SDS011;904;47.814;11.134;2022-12-07T02:04:42;14.73;;;8.82;;
1811;SDS011;904;47.814;11.134;2022-12-07T02:07:11;14.73;;;11.00;;
1811;SDS011;904;47.814;11.134;2022-12-07T02:09:45;15.60;;;10.15;;
1811;SDS011;904;47.814;11.134;2022-12-07T02:12:12;12.35;;;8.88;;
1811;SDS011;904;47.814;11.134;2022-12-07T02:14:44;11.13;;;8.35;;
1811;SDS011;904;47.814;11.134;2022-12-07T02:17:18;11.13;;;8.70;;
1811;SDS011;904;47.814;11.134;2022-12-07T02:20:00;14.73;;;10.05;;
1811;SDS011;904;47.814;11.134;2022-12-07T02:23:00;13.00;;;10.18;;
1811;SDS011;904;47.814;11.134;2022-12-07T02:25:56;11.00;;;8.30;;
1811;SDS011;904;47.814;11.134;2022-12-07T02:28:45;13.77;;;8.30;;
1811;SDS011;904;47.814;11.134;2022-12-07T02:31:20;15.50;;;9.07;;
1811;SDS011;904;47.814;11.134;2022-12-07T02:33:51;10.23;;;8.48;;
1811;SDS011;904;47.814;11.134;2022-12-07T02:36:28;10.07;;;7.60;;
1811;SDS011;904;47.814;11.134;2022-12-07T02:39:01;11.93;;;9.52;;
1811;SDS011;904;47.814;11.134;2022-12-07T02:41:37;12.35;;;9.15;;
1811;SDS011;904;47.814;11.134;2022-12-07T02:44:12;18.38;;;9.68;;
1811;SDS011;904;47.814;11.134;2022-12-07T02:46:46;13.15;;;8.88;;
1811;SDS011;904;47.814;11.134;2022-12-07T02:49:17;14.38;;;8.95;;
1811;SDS011;904;47.814;11.134;2022-12-07T02:51:46;14.48;;;10.20;;
1811;SDS011;904;47.814;11.134;2022-12-07T02:54:17;11.20;;;8.55;;
1811;SDS011;904;47.814;11.134;2022-12-07T02:56:46;13.55;;;10.95;;
1811;SDS011;904;47.814;11.134;2022-12-07T02:59:20;10.98;;;9.10;;
1811;SDS011;904;47.814;11.134;2022-12-07T03:02:01;12.63;;;10.15;;
1811;SDS011;904;47.814;11.134;2022-12-07T03:04:45;13.07;;;8.95;;
1811;SDS011;904;47.814;11.134;2022-12-07T03:07:22;12.25;;;9.18;;
1811;SDS011;904;47.814;11.134;2022-12-07T03:09:57;12.90;;;9.57;;
1811;SDS011;904;47.814;11.134;2022-12-07T03:12:29;12.25;;;9.13;;
1811;SDS011;904;47.814;11.134;2022-12-07T03:15:05;11.75;;;9.27;;
1811;SDS011;904;47.814;11.134;2022-12-07T03:17:35;12.32;;;9.73;;
1811;SDS011;904;47.814;11.134;2022-12-07T03:20:09;12.00;;;8.75;;
1811;SDS011;904;47.814;11.134;2022-12-07T03:22:44;12.15;;;9.52;;
1811;SDS011;904;47.814;11.134;2022-12-07T03:25:14;16.02;;;10.85;;
1811;SDS011;904;47.814;11.134;2022-12-07T03:27:44;13.25;;;10.15;;
1811;SDS011;904;47.814;11.134;2022-12-07T03:30:19;13.93;;;10.93;;
1811;SDS011;904;47.814;11.134;2022-12-07T03:32:48;13.75;;;11.82;;
1811;SDS011;904;47.814;11.134;2022-12-07T03:35:20;13.48;;;10.13;;
1811;SDS011;904;47.814;11.134;2022-12-07T03:37:52;11.15;;;9.57;;
1811;SDS011;904;47.814;11.134;2022-12-07T03:40:26;12.55;;;9.00;;
1811;SDS011;904;47.814;11.134;2022-12-07T03:42:59;12.02;;;10.10;;
1811;SDS011;904;47.814;11.134;2022-12-07T03:45:31;11.55;;;9.52;;
1811;SDS011;904;47.814;11.134;2022-12-07T03:48:12;11.23;;;9.10;;
1811;SDS011;904;47.814;11.134;2022-12-07T03:50:53;14.10;;;9.77;;
1811;SDS011;904;47.814;11.134;2022-12-07T03:53:29;12.98;;;9.80;;
1811;SDS011;904;47.814;11.134;2022-12-07T03:56:29;10.50;;;8.18;;
1811;SDS011;904;47.814;11.134;2022-12-07T03:58:58;11.85;;;9.00;;
1811;SDS011;904;47.814;11.134;2022-12-07T04:01:27;13.07;;;9.00;;
1811;SDS011;904;47.814;11.134;2022-12-07T04:03:54;13.05;;;10.35;;
1811;SDS011;904;47.814;11.134;2022-12-07T04:06:30;11.82;;;9.35;;
1811;SDS011;904;47.814;11.134;2022-12-07T04:08:57;13.98;;;10.20;;
1811;SDS011;904;47.814;11.134;2022-12-07T04:11:28;16.40;;;9.07;;
1811;SDS011;904;47.814;11.134;2022-12-07T04:13:55;12.65;;;8.85;;
1811;SDS011;904;47.814;11.134;2022-12-07T04:16:41;11.45;;;9.30;;
1811;SDS011;904;47.814;11.134;2022-12-07T04:19:16;13.50;;;8.90;;
1811;SDS011;904;47.814;11.134;2022-12-07T04:21:50;14.18;;;10.27;;
1811;SDS011;904;47.814;11.134;2022-12-07T04:24:17;12.70;;;9.05;;
1811;SDS011;904;47.814;11.134;2022-12-07T04:26:51;12.55;;;9.38;;
1811;SDS011;904;47.814;11.134;2022-12-07T04:29:18;13.98;;;9.00;;
1811;SDS011;904;47.814;11.134;2022-12-07T04:31:47;12.30;;;10.20;;
1811;SDS011;904;47.814;11.134;2022-12-07T04:34:16;13.98;;;10.38;;
1811;SDS011;904;47.814;11.134;2022-12-07T04:36:44;14.77;;;11.27;;
1811;SDS011;904;47.814;11.134;2022-12-07T04:39:14;13.48;;;10.55;;
1811;SDS011;904;47.814;11.134;2022-12-07T04:41:57;17.58;;;10.90;;
1811;SDS011;904;47.814;11.134;2022-12-07T04:44:30;18.33;;;11.15;;
1811;SDS011;904;47.814;11.134;2022-12-07T04:46:59;16.70;;;11.85;;
1811;SDS011;904;47.814;11.134;2022-12-07T04:49:26;13.75;;;9.55;;
1811;SDS011;904;47.814;11.134;2022-12-07T04:51:53;15.90;;;10.48;;
1811;SDS011;904;47.814;11.134;2022-12-07T04:54:20;12.65;;;10.80;;
1811;SDS011;904;47.814;11.134;2022-12-07T04:56:48;15.27;;;11.27;;
1811;SDS011;904;47.814;11.134;2022-12-07T04:59:15;16.05;;;11.20;;
1811;SDS011;904;47.814;11.134;2022-12-07T05:01:43;15.23;;;10.20;;
1811;SDS011;904;47.814;11.134;2022-12-07T05:04:12;13.52;;;10.23;;
1811;SDS011;904;47.814;11.134;2022-12-07T05:06:41;13.05;;;10.57;;
1811;SDS011;904;47.814;11.134;2022-12-07T05:09:08;12.70;;;11.27;;
1811;SDS011;904;47.814;11.134;2022-12-07T05:11:36;14.02;;;11.20;;
1811;SDS011;904;47.814;11.134;2022-12-07T05:14:11;14.25;;;10.30;;
1811;SDS011;904;47.814;11.134;2022-12-07T05:16:40;12.80;;;10.60;;
1811;SDS011;904;47.814;11.134;2022-12-07T05:19:08;12.45;;;9.00;;
1811;SDS011;904;47.814;11.134;2022-12-07T05:21:37;12.15;;;10.10;;
1811;SDS011;904;47.814;11.134;2022-12-07T05:24:05;18.85;;;11.80;;
1811;SDS011;904;47.814;11.134;2022-12-07T05:26:33;17.70;;;13.27;;
1811;SDS011;904;47.814;11.134;2022-12-07T05:29:01;16.83;;;12.55;;
1811;SDS011;904;47.814;11.134;2022-12-07T05:31:28;16.65;;;12.82;;
1811;SDS011;904;47.814;11.134;2022-12-07T05:33:58;17.92;;;12.85;;
1811;SDS011;904;47.814;11.134;2022-12-07T05:36:26;18.35;;;12.18;;
1811;SDS011;904;47.814;11.134;2022-12-07T05:38:57;17.05;;;11.23;;
1811;SDS011;904;47.814;11.134;2022-12-07T05:41:25;14.48;;;10.38;;
1811;SDS011;904;47.814;11.134;2022-12-07T05:44:09;14.77;;;12.13;;
1811;SDS011;904;47.814;11.134;2022-12-07T05:46:37;13.82;;;10.70;;
1811;SDS011;904;47.814;11.134;2022-12-07T05:49:05;17.45;;;10.95;;
1811;SDS011;904;47.814;11.134;2022-12-07T05:51:33;14.70;;;11.43;;
1811;SDS011;904;47.814;11.134;2022-12-07T05:54:01;16.15;;;12.13;;
1811;SDS011;904;47.814;11.134;2022-12-07T05:56:29;16.85;;;11.65;;
1811;SDS011;904;47.814;11.134;2022-12-07T05:58:56;16.10;;;10.68;;
1811;SDS011;904;47.814;11.134;2022-12-07T06:01:40;13.50;;;9.65;;
1811;SDS011;904;47.814;11.134;2022-12-07T06:04:07;13.40;;;9.95;;
1811;SDS011;904;47.814;11.134;2022-12-07T06:06:34;12.65;;;9.32;;
1811;SDS011;904;47.814;11.134;2022-12-07T06:09:03;18.90;;;11.27;;
1811;SDS011;904;47.814;11.134;2022-12-07T06:11:31;13.43;;;9.43;;
1811;SDS011;904;47.814;11.134;2022-12-07T06:14:15;15.05;;;9.40;;
1811;SDS011;904;47.814;11.134;2022-12-07T06:16:43;13.65;;;8.63;;
1811;SDS011;904;47.814;11.134;2022-12-07T06:19:10;10.80;;;8.07;;
1811;SDS011;904;47.814;11.134;2022-12-07T06:21:37;13.85;;;9.15;;
1811;SDS011;904;47.814;11.134;2022-12-07T06:24:06;12.70;;;8.30;;
1811;SDS011;904;47.814;11.134;2022-12-07T06:26:33;14.75;;;9.57;;
1811;SDS011;904;47.814;11.134;2022-12-07T06:29:00;12.57;;;9.48;;
1811;SDS011;904;47.814;11.134;2022-12-07T06:31:27;13.00;;;9.93;;
1811;SDS011;904;47.814;11.134;2022-12-07T06:33:56;14.73;;;10.02;;
1811;SDS011;904;47.814;11.134;2022-12-07T06:36:24;13.57;;;10.02;;
1811;SDS011;904;47.814;11.134;2022-12-07T06:38:51;14.77;;;9.02;;
1811;SDS011;904;47.814;11.134;2022-12-07T06:41:20;13.18;;;8.85;;
1811;SDS011;904;47.814;11.134;2022-12-07T06:43:47;15.07;;;9.15;;
1811;SDS011;904;47.814;11.134;2022-12-07T06:46:14;14.07;;;10.00;;
1811;SDS011;904;47.814;11.134;2022-12-07T06:48:42;14.20;;;10.20;;
1811;SDS011;904;47.814;11.134;2022-12-07T06:51:10;15.15;;;10.38;;
1811;SDS011;904;47.814;11.134;2022-12-07T06:53:37;18.50;;;8.05;;
1811;SDS011;904;47.814;11.134;2022-12-07T06:56:04;13.88;;;10.13;;
1811;SDS011;904;47.814;11.134;2022-12-07T06:58:33;12.48;;;9.30;;
1811;SDS011;904;47.814;11.134;2022-12-07T07:01:00;11.75;;;8.63;;
1811;SDS011;904;47.814;11.134;2022-12-07T07:03:31;14.27;;;9.38;;
1811;SDS011;904;47.814;11.134;2022-12-07T07:05:58;14.32;;;10.38;;
1811;SDS011;904;47.814;11.134;2022-12-07T07:08:25;11.82;;;9.20;;
1811;SDS011;904;47.814;11.134;2022-12-07T07:10:52;11.50;;;9.05;;
1811;SDS011;904;47.814;11.134;2022-12-07T07:13:19;13.63;;;9.18;;
1811;SDS011;904;47.814;11.134;2022-12-07T07:15:47;15.02;;;9.30;;
1811;SDS011;904;47.814;11.134;2022-12-07T07:18:14;12.50;;;9.65;;
1811;SDS011;904;47.814;11.134;2022-12-07T07:20:41;12.65;;;10.15;;
1811;SDS011;904;47.814;11.134;2022-12-07T07:23:08;13.60;;;9.40;;
1811;SDS011;904;47.814;11.134;2022-12-07T07:25:36;15.38;;;10.23;;
1811;SDS011;904;47.814;11.134;2022-12-07T07:28:03;12.05;;;9.02;;
1811;SDS011;904;47.814;11.134;2022-12-07T07:30:30;13.48;;;10.70;;
1811;SDS011;904;47.814;11.134;2022-12-07T07:32:59;14.10;;;10.25;;
1811;SDS011;904;47.814;11.134;2022-12-07T07:35:27;13.48;;;9.27;;
1811;SDS011;904;47.814;11.134;2022-12-07T07:37:59;14.70;;;10.30;;
1811;SDS011;904;47.814;11.134;2022-12-07T07:40:26;14.98;;;10.23;;
1811;SDS011;904;47.814;11.134;2022-12-07T07:42:54;17.17;;;12.27;;
1811;SDS011;904;47.814;11.134;2022-12-07T07:45:28;17.77;;;11.55;;
1811;SDS011;904;47.814;11.134;2022-12-07T07:47:55;18.85;;;13.05;;
1811;SDS011;904;47.814;11.134;2022-12-07T07:50:24;16.00;;;12.15;;
1811;SDS011;904;47.814;11.134;2022-12-07T07:52:51;32.67;;;18.40;;
1811;SDS011;904;47.814;11.134;2022-12-07T07:55:23;29.23;;;17.10;;
1811;SDS011;904;47.814;11.134;2022-12-07T07:57:53;20.58;;;12.70;;
1811;SDS011;904;47.814;11.134;2022-12-07T08:00:23;23.17;;;15.25;;
1811;SDS011;904;47.814;11.134;2022-12-07T08:02:50;19.45;;;14.98;;
1811;SDS011;904;47.814;11.134;2022-12-07T08:05:17;21.35;;;15.82;;
1811;SDS011;904;47.814;11.134;2022-12-07T08:07:46;23.48;;;15.68;;
1811;SDS011;904;47.814;11.134;2022-12-07T08:10:14;21.23;;;14.25;;
1811;SDS011;904;47.814;11.134;2022-12-07T08:12:45;22.33;;;14.57;;
1811;SDS011;904;47.814;11.134;2022-12-07T08:15:26;18.15;;;15.05;;
1811;SDS011;904;47.814;11.134;2022-12-07T08:17:54;19.80;;;15.05;;
1811;SDS011;904;47.814;11.134;2022-12-07T08:20:21;20.60;;;15.75;;
1811;SDS011;904;47.814;11.134;2022-12-07T08:22:50;15.85;;;10.88;;
1811;SDS011;904;47.814;11.134;2022-12-07T08:25:20;19.95;;;14.07;;
1811;SDS011;904;47.814;11.134;2022-12-07T08:27:50;15.80;;;12.80;;
1811;SDS011;904;47.814;11.134;2022-12-07T08:30:18;18.95;;;13.80;;
1811;SDS011;904;47.814;11.134;2022-12-07T08:32:45;30.52;;;16.83;;
1811;SDS011;904;47.814;11.134;2022-12-07T08:35:14;21.98;;;14.15;;
1811;SDS011;904;47.814;11.134;2022-12-07T08:37:41;19.33;;;14.27;;
1811;SDS011;904;47.814;11.134;2022-12-07T08:40:10;19.02;;;14.15;;
1811;SDS011;904;47.814;11.134;2022-12-07T08:42:41;18.60;;;14.23;;
1811;SDS011;904;47.814;11.134;2022-12-07T08:45:10;15.88;;;12.13;;
1811;SDS011;904;47.814;11.134;2022-12-07T08:47:40;18.23;;;12.73;;
1811;SDS011;904;47.814;11.134;2022-12-07T08:50:10;22.42;;;13.63;;
1811;SDS011;904;47.814;11.134;2022-12-07T08:52:38;19.20;;;12.23;;
1811;SDS011;904;47.814;11.134;2022-12-07T08:55:10;19.05;;;14.73;;
1811;SDS011;904;47.814;11.134;2022-12-07T08:57:38;19.20;;;15.30;;
1811;SDS011;904;47.814;11.134;2022-12-07T09:00:06;16.98;;;12.93;;
1811;SDS011;904;47.814;11.134;2022-12-07T09:02:34;14.63;;;11.55;;
1811;SDS011;904;47.814;11.134;2022-12-07T09:05:01;26.27;;;16.67;;
1811;SDS011;904;47.814;11.134;2022-12-07T09:07:29;19.05;;;14.25;;
1811;SDS011;904;47.814;11.134;2022-12-07T09:10:00;19.27;;;15.95;;
1811;SDS011;904;47.814;11.134;2022-12-07T09:12:28;19.80;;;13.10;;
1811;SDS011;904;47.814;11.134;2022-12-07T09:14:55;17.42;;;12.75;;
1811;SDS011;904;47.814;11.134;2022-12-07T09:17:22;14.25;;;11.45;;
1811;SDS011;904;47.814;11.134;2022-12-07T09:19:49;18.58;;;11.98;;
1811;SDS011;904;47.814;11.134;2022-12-07T09:22:17;20.80;;;13.02;;
1811;SDS011;904;47.814;11.134;2022-12-07T09:24:44;18.83;;;14.10;;
1811;SDS011;904;47.814;11.134;2022-12-07T09:27:12;18.35;;;12.18;;
1811;SDS011;904;47.814;11.134;2022-12-07T09:29:40;17.02;;;11.95;;
1811;SDS011;904;47.814;11.134;2022-12-07T09:32:08;16.48;;;12.20;;
1811;SDS011;904;47.814;11.134;2022-12-07T09:34:35;19.75;;;11.95;;
1811;SDS011;904;47.814;11.134;2022-12-07T09:37:03;17.20;;;11.10;;
1811;SDS011;904;47.814;11.134;2022-12-07T09:39:30;15.93;;;12.45;;
1811;SDS011;904;47.814;11.134;2022-12-07T09:41:57;18.15;;;11.25;;
1811;SDS011;904;47.814;11.134;2022-12-07T09:44:25;17.55;;;12.95;;
1811;SDS011;904;47.814;11.134;2022-12-07T09:46:55;19.80;;;11.85;;
1811;SDS011;904;47.814;11.134;2022-12-07T09:49:24;20.05;;;11.15;;
1811;SDS011;904;47.814;11.134;2022-12-07T09:52:02;16.20;;;12.82;;
1811;SDS011;904;47.814;11.134;2022-12-07T09:54:45;18.77;;;12.18;;
1811;SDS011;904;47.814;11.134;2022-12-07T09:57:14;17.08;;;11.07;;
1811;SDS011;904;47.814;11.134;2022-12-07T09:59:41;15.20;;;11.80;;
1811;SDS011;904;47.814;11.134;2022-12-07T10:02:23;15.10;;;10.40;;
1811;SDS011;904;47.814;11.134;2022-12-07T10:05:00;13.55;;;9.57;;
1811;SDS011;904;47.814;11.134;2022-12-07T10:07:38;14.50;;;10.60;;
1811;SDS011;904;47.814;11.134;2022-12-07T10:10:19;14.15;;;10.77;;
1811;SDS011;904;47.814;11.134;2022-12-07T10:12:55;16.52;;;10.63;;
1811;SDS011;904;47.814;11.134;2022-12-07T10:15:37;15.52;;;11.10;;
1811;SDS011;904;47.814;11.134;2022-12-07T10:21:08;15.00;;;9.95;;
1811;SDS011;904;47.814;11.134;2022-12-07T10:23:39;14.55;;;9.82;;
1811;SDS011;904;47.814;11.134;2022-12-07T10:26:21;16.30;;;11.63;;
1811;SDS011;904;47.814;11.134;2022-12-07T10:28:59;15.52;;;10.35;;
1811;SDS011;904;47.814;11.134;2022-12-07T10:31:29;14.93;;;10.95;;
1811;SDS011;904;47.814;11.134;2022-12-07T10:33:58;13.57;;;9.70;;
1811;SDS011;904;47.814;11.134;2022-12-07T10:36:29;14.90;;;10.20;;
1811;SDS011;904;47.814;11.134;2022-12-07T10:39:03;13.65;;;10.27;;
1811;SDS011;904;47.814;11.134;2022-12-07T10:41:41;20.50;;;14.00;;
1811;SDS011;904;47.814;11.134;2022-12-07T10:44:20;20.02;;;14.10;;
1811;SDS011;904;47.814;11.134;2022-12-07T10:46:58;18.75;;;13.80;;
1811;SDS011;904;47.814;11.134;2022-12-07T10:49:55;16.35;;;11.60;;
1811;SDS011;904;47.814;11.134;2022-12-07T10:53:01;14.45;;;10.75;;
1811;SDS011;904;47.814;11.134;2022-12-07T10:55:55;14.50;;;10.27;;
1811;SDS011;904;47.814;11.134;2022-12-07T10:58:42;14.57;;;9.73;;
1811;SDS011;904;47.814;11.134;2022-12-07T11:01:20;18.65;;;10.85;;
1811;SDS011;904;47.814;11.134;2022-12-07T11:04:04;14.80;;;9.18;;
1811;SDS011;904;47.814;11.134;2022-12-07T11:07:00;15.90;;;10.82;;
1811;SDS011;904;47.814;11.134;2022-12-07T11:09:43;15.02;;;10.90;;
1811;SDS011;904;47.814;11.134;2022-12-07T11:12:32;16.63;;;10.85;;
1811;SDS011;904;47.814;11.134;2022-12-07T11:15:11;14.93;;;10.52;;
1811;SDS011;904;47.814;11.134;2022-12-07T11:17:45;20.60;;;14.30;;
1811;SDS011;904;47.814;11.134;2022-12-07T11:20:23;17.45;;;12.55;;
1811;SDS011;904;47.814;11.134;2022-12-07T11:23:00;17.58;;;13.38;;
1811;SDS011;904;47.814;11.134;2022-12-07T11:25:38;21.17;;;14.07;;
1811;SDS011;904;47.814;11.134;2022-12-07T11:28:16;26.08;;;16.55;;
1811;SDS011;904;47.814;11.134;2022-12-07T11:30:52;20.45;;;14.20;;
1811;SDS011;904;47.814;11.134;2022-12-07T11:33:29;16.83;;;12.23;;
1811;SDS011;904;47.814;11.134;2022-12-07T11:36:08;15.93;;;12.02;;
1811;SDS011;904;47.814;11.134;2022-12-07T11:38:45;18.17;;;11.63;;
1811;SDS011;904;47.814;11.134;2022-12-07T11:41:17;15.55;;;10.85;;
1811;SDS011;904;47.814;11.134;2022-12-07T11:43:56;17.02;;;11.30;;
1811;SDS011;904;47.814;11.134;2022-12-07T11:46:29;26.50;;;19.35;;
1811;SDS011;904;47.814;11.134;2022-12-07T11:49:10;21.40;;;14.88;;
1811;SDS011;904;47.814;11.134;2022-12-07T11:51:45;18.13;;;12.68;;
1811;SDS011;904;47.814;11.134;2022-12-07T11:54:16;12.63;;;9.63;;
1811;SDS011;904;47.814;11.134;2022-12-07T11:56:46;18.83;;;11.52;;
1811;SDS011;904;47.814;11.134;2022-12-07T11:59:18;19.02;;;13.85;;
1811;SDS011;904;47.814;11.134;2022-12-07T12:01:52;18.10;;;10.88;;
1811;SDS011;904;47.814;11.134;2022-12-07T12:04:31;15.57;;;11.40;;
1811;SDS011;904;47.814;11.134;2022-12-07T12:07:14;17.60;;;11.93;;
1811;SDS011;904;47.814;11.134;2022-12-07T12:09:47;23.13;;;15.60;;
1811;SDS011;904;47.814;11.134;2022-12-07T12:12:36;19.25;;;11.38;;
1811;SDS011;904;47.814;11.134;2022-12-07T12:15:18;17.83;;;13.45;;
1811;SDS011;904;47.814;11.134;2022-12-07T12:18:12;15.95;;;10.48;;
1811;SDS011;904;47.814;11.134;2022-12-07T12:20:52;12.85;;;9.90;;
1811;SDS011;904;47.814;11.134;2022-12-07T12:23:22;14.80;;;10.23;;
1811;SDS011;904;47.814;11.134;2022-12-07T12:25:56;13.23;;;9.63;;
1811;SDS011;904;47.814;11.134;2022-12-07T12:28:26;16.85;;;12.50;;
1811;SDS011;904;47.814;11.134;2022-12-07T12:31:10;16.83;;;11.18;;
1811;SDS011;904;47.814;11.134;2022-12-07T12:33:42;14.38;;;10.07;;
1811;SDS011;904;47.814;11.134;2022-12-07T12:36:19;13.55;;;10.02;;
1811;SDS011;904;47.814;11.134;2022-12-07T12:38:51;13.23;;;9.48;;
1811;SDS011;904;47.814;11.134;2022-12-07T12:41:56;14.80;;;9.60;;
1811;SDS011;904;47.814;11.134;2022-12-07T12:47:51;13.80;;;10.02;;
1811;SDS011;904;47.814;11.134;2022-12-07T12:50:24;12.18;;;9.70;;
1811;SDS011;904;47.814;11.134;2022-12-07T12:52:57;13.75;;;10.75;;
1811;SDS011;904;47.814;11.134;2022-12-07T12:58:51;10.95;;;7.57;;
1811;SDS011;904;47.814;11.134;2022-12-07T13:01:53;11.90;;;8.38;;
1811;SDS011;904;47.814;11.134;2022-12-07T13:04:27;12.88;;;9.88;;
1811;SDS011;904;47.814;11.134;2022-12-07T13:07:46;13.15;;;8.23;;
1811;SDS011;904;47.814;11.134;2022-12-07T13:28:14;12.98;;;9.00;;
1811;SDS011;904;47.814;11.134;2022-12-07T13:30:53;10.57;;;8.60;;
1811;SDS011;904;47.814;11.134;2022-12-07T13:33:28;12.15;;;9.93;;
1811;SDS011;904;47.814;11.134;2022-12-07T13:35:56;14.25;;;10.50;;
1811;SDS011;904;47.814;11.134;2022-12-07T13:38:27;16.05;;;10.35;;
1811;SDS011;904;47.814;11.134;2022-12-07T13:41:03;11.45;;;8.95;;
1811;SDS011;904;47.814;11.134;2022-12-07T13:43:42;12.20;;;8.75;;
1811;SDS011;904;47.814;11.134;2022-12-07T13:46:10;13.48;;;9.52;;
1811;SDS011;904;47.814;11.134;2022-12-07T13:48:44;12.32;;;8.93;;
1811;SDS011;904;47.814;11.134;2022-12-07T13:51:22;11.75;;;9.40;;
1811;SDS011;904;47.814;11.134;2022-12-07T13:53:51;13.55;;;9.38;;
1811;SDS011;904;47.814;11.134;2022-12-07T13:56:20;12.98;;;9.70;;
1811;SDS011;904;47.814;11.134;2022-12-07T13:58:52;11.68;;;8.25;;
1811;SDS011;904;47.814;11.134;2022-12-07T14:01:19;12.32;;;8.48;;
1811;SDS011;904;47.814;11.134;2022-12-07T14:03:49;11.75;;;8.55;;
1811;SDS011;904;47.814;11.134;2022-12-07T14:06:23;11.55;;;8.13;;
1811;SDS011;904;47.814;11.134;2022-12-07T14:09:05;10.35;;;7.55;;
1811;SDS011;904;47.814;11.134;2022-12-07T14:11:34;15.80;;;10.80;;
1811;SDS011;904;47.814;11.134;2022-12-07T14:14:01;12.02;;;8.68;;
1811;SDS011;904;47.814;11.134;2022-12-07T14:16:30;13.02;;;9.52;;
1811;SDS011;904;47.814;11.134;2022-12-07T14:19:00;14.75;;;9.85;;
1811;SDS011;904;47.814;11.134;2022-12-07T14:21:29;13.07;;;9.55;;
1811;SDS011;904;47.814;11.134;2022-12-07T14:24:09;13.57;;;10.57;;
1811;SDS011;904;47.814;11.134;2022-12-07T14:26:40;13.80;;;10.70;;
1811;SDS011;904;47.814;11.134;2022-12-07T14:29:29;16.60;;;11.35;;
1811;SDS011;904;47.814;11.134;2022-12-07T14:31:58;15.05;;;11.70;;
1811;SDS011;904;47.814;11.134;2022-12-07T14:34:38;15.88;;;11.50;;
1811;SDS011;904;47.814;11.134;2022-12-07T14:37:07;14.80;;;11.25;;
1811;SDS011;904;47.814;11.134;2022-12-07T14:39:35;9.70;;;8.07;;
1811;SDS011;904;47.814;11.134;2022-12-07T14:42:04;15.20;;;9.60;;
1811;SDS011;904;47.814;11.134;2022-12-07T14:44:33;11.23;;;8.60;;
1811;SDS011;904;47.814;11.134;2022-12-07T14:47:00;12.75;;;8.73;;
1811;SDS011;904;47.814;11.134;2022-12-07T14:49:27;13.15;;;9.77;;
1811;SDS011;904;47.814;11.134;2022-12-07T14:51:56;16.13;;;11.48;;
1811;SDS011;904;47.814;11.134;2022-12-07T14:54:25;13.18;;;10.45;;
1811;SDS011;904;47.814;11.134;2022-12-07T14:56:55;16.98;;;10.35;;
1811;SDS011;904;47.814;11.134;2022-12-07T14:59:23;23.25;;;11.52;;
1811;SDS011;904;47.814;11.134;2022-12-07T15:01:54;19.65;;;12.00;;
1811;SDS011;904;47.814;11.134;2022-12-07T15:04:21;20.88;;;12.65;;
1811;SDS011;904;47.814;11.134;2022-12-07T15:06:56;15.85;;;11.15;;
1811;SDS011;904;47.814;11.134;2022-12-07T15:09:25;17.55;;;12.48;;
1811;SDS011;904;47.814;11.134;2022-12-07T15:11:52;14.23;;;11.85;;
1811;SDS011;904;47.814;11.134;2022-12-07T15:14:20;15.55;;;9.80;;
1811;SDS011;904;47.814;11.134;2022-12-07T15:16:46;17.40;;;11.75;;
1811;SDS011;904;47.814;11.134;2022-12-07T15:19:14;18.42;;;13.40;;
1811;SDS011;904;47.814;11.134;2022-12-07T15:21:42;22.30;;;18.67;;
1811;SDS011;904;47.814;11.134;2022-12-07T15:24:11;23.17;;;17.25;;
1811;SDS011;904;47.814;11.134;2022-12-07T15:26:38;16.65;;;14.30;;
1811;SDS011;904;47.814;11.134;2022-12-07T15:29:06;16.88;;;11.98;;
1811;SDS011;904;47.814;11.134;2022-12-07T15:31:34;13.90;;;11.82;;
1811;SDS011;904;47.814;11.134;2022-12-07T15:34:03;14.98;;;11.30;;
1811;SDS011;904;47.814;11.134;2022-12-07T15:36:31;15.63;;;11.45;;
1811;SDS011;904;47.814;11.134;2022-12-07T15:39:00;19.70;;;13.20;;
1811;SDS011;904;47.814;11.134;2022-12-07T15:41:29;16.52;;;12.20;;
1811;SDS011;904;47.814;11.134;2022-12-07T15:43:56;14.82;;;12.25;;
1811;SDS011;904;47.814;11.134;2022-12-07T15:46:42;15.82;;;12.57;;
1811;SDS011;904;47.814;11.134;2022-12-07T15:49:15;18.58;;;13.15;;
1811;SDS011;904;47.814;11.134;2022-12-07T15:51:44;19.30;;;12.80;;
1811;SDS011;904;47.814;11.134;2022-12-07T15:54:12;13.68;;;10.77;;